sensor_id;sensor_type;location;lat;lon;timestamp;pressure;altitude;pressure_sealevel;temperature;humidity
70133;BME280;57495;49.922;7.966;2023-04-28T00:00:18;99763.41;;;11.97;76.98
70133;BME280;57495;49.922;7.966;2023-04-28T00:02:19;99770.38;;;11.90;76.03
70133;BME280;57495;49.922;7.966;2023-04-28T00:04:21;99767.22;;;11.95;73.52
70133;BME280;57495;49.922;7.966;2023-04-28T00:06:22;99764.75;;;12.02;73.30
70133;BME280;57495;49.922;7.966;2023-04-28T00:08:24;99767.28;;;12.03;73.53
70133;BME280;57495;49.922;7.966;2023-04-28T00:10:27;99763.59;;;12.04;75.79
70133;BME280;57495;49.922;7.966;2023-04-28T00:12:29;99760.00;;;11.95;80.38
70133;BME280;57495;49.922;7.966;2023-04-28T00:14:30;99762.53;;;11.97;80.00
70133;BME280;57495;49.922;7.966;2023-04-28T00:16:32;99756.50;;;11.95;78.69
70133;BME280;57495;49.922;7.966;2023-04-28T00:18:33;99745.09;;;11.93;80.44
70133;BME280;57495;49.922;7.966;2023-04-28T00:20:35;99738.06;;;11.92;81.31
70133;BME280;57495;49.922;7.966;2023-04-28T00:22:36;99732.16;;;11.88;79.72
70133;BME280;57495;49.922;7.966;2023-04-28T00:24:38;99728.63;;;11.88;81.77
70133;BME280;57495;49.922;7.966;2023-04-28T00:26:42;99723.97;;;11.90;82.37
70133;BME280;57495;49.922;7.966;2023-04-28T00:28:43;99720.59;;;11.88;80.56
70133;BME280;57495;49.922;7.966;2023-04-28T00:30:45;99722.59;;;11.86;83.10
70133;BME280;57495;49.922;7.966;2023-04-28T00:32:46;99716.38;;;11.85;84.29
70133;BME280;57495;49.922;7.966;2023-04-28T00:34:48;99718.41;;;11.83;84.57
70133;BME280;57495;49.922;7.966;2023-04-28T00:36:49;99717.56;;;11.83;83.49
70133;BME280;57495;49.922;7.966;2023-04-28T00:38:51;99716.38;;;11.85;83.36
70133;BME280;57495;49.922;7.966;2023-04-28T00:40:52;99705.53;;;11.87;85.88
70133;BME280;57495;49.922;7.966;2023-04-28T00:42:55;99703.66;;;11.79;82.05
70133;BME280;57495;49.922;7.966;2023-04-28T00:44:56;99700.44;;;11.75;85.18
70133;BME280;57495;49.922;7.966;2023-04-28T00:46:58;99700.22;;;11.69;86.39
70133;BME280;57495;49.922;7.966;2023-04-28T00:48:59;99699.22;;;11.70;85.34
70133;BME280;57495;49.922;7.966;2023-04-28T00:51:01;99701.72;;;11.71;81.29
70133;BME280;57495;49.922;7.966;2023-04-28T00:53:03;99693.09;;;11.77;83.14
70133;BME280;57495;49.922;7.966;2023-04-28T00:55:06;99694.75;;;11.78;83.26
70133;BME280;57495;49.922;7.966;2023-04-28T00:57:08;99693.38;;;11.74;86.03
70133;BME280;57495;49.922;7.966;2023-04-28T00:59:11;99697.56;;;11.77;86.64
70133;BME280;57495;49.922;7.966;2023-04-28T01:01:12;99688.97;;;11.65;85.28
70133;BME280;57495;49.922;7.966;2023-04-28T01:03:14;99684.00;;;11.70;85.84
70133;BME280;57495;49.922;7.966;2023-04-28T01:05:15;99668.06;;;11.69;82.71
70133;BME280;57495;49.922;7.966;2023-04-28T01:07:17;99666.91;;;11.71;81.92
70133;BME280;57495;49.922;7.966;2023-04-28T01:09:18;99669.25;;;11.66;82.60
70133;BME280;57495;49.922;7.966;2023-04-28T01:11:20;99666.56;;;11.66;84.38
70133;BME280;57495;49.922;7.966;2023-04-28T01:13:21;99675.97;;;11.70;86.94
70133;BME280;57495;49.922;7.966;2023-04-28T01:15:24;99671.25;;;11.64;86.19
70133;BME280;57495;49.922;7.966;2023-04-28T01:17:26;99673.22;;;11.62;84.40
70133;BME280;57495;49.922;7.966;2023-04-28T01:19:28;99671.25;;;11.64;88.06
70133;BME280;57495;49.922;7.966;2023-04-28T01:21:30;99661.16;;;11.58;86.03
70133;BME280;57495;49.922;7.966;2023-04-28T01:23:31;99663.56;;;11.69;84.53
70133;BME280;57495;49.922;7.966;2023-04-28T01:25:34;99658.31;;;11.59;83.77
70133;BME280;57495;49.922;7.966;2023-04-28T01:27:36;99661.72;;;11.70;77.89
70133;BME280;57495;49.922;7.966;2023-04-28T01:29:37;99671.97;;;11.74;81.32
70133;BME280;57495;49.922;7.966;2023-04-28T01:31:38;99671.31;;;11.80;83.62
70133;BME280;57495;49.922;7.966;2023-04-28T01:33:40;99675.66;;;11.73;84.29
70133;BME280;57495;49.922;7.966;2023-04-28T01:35:41;99671.19;;;11.56;82.66
70133;BME280;57495;49.922;7.966;2023-04-28T01:37:42;99674.06;;;11.63;84.60
70133;BME280;57495;49.922;7.966;2023-04-28T01:39:44;99655.50;;;11.69;85.49
70133;BME280;57495;49.922;7.966;2023-04-28T01:41:47;99662.25;;;11.73;84.24
70133;BME280;57495;49.922;7.966;2023-04-28T01:43:48;99651.84;;;11.70;84.33
70133;BME280;57495;49.922;7.966;2023-04-28T01:45:49;99650.84;;;11.71;83.35
70133;BME280;57495;49.922;7.966;2023-04-28T01:47:51;99654.03;;;11.75;81.12
70133;BME280;57495;49.922;7.966;2023-04-28T01:49:52;99658.88;;;11.71;80.68
70133;BME280;57495;49.922;7.966;2023-04-28T01:51:54;99659.22;;;11.42;77.87
70133;BME280;57495;49.922;7.966;2023-04-28T01:53:55;99665.41;;;11.43;83.09
70133;BME280;57495;49.922;7.966;2023-04-28T01:55:56;99661.78;;;11.52;86.86
70133;BME280;57495;49.922;7.966;2023-04-28T01:57:59;99660.00;;;11.60;86.73
70133;BME280;57495;49.922;7.966;2023-04-28T02:00:01;99669.25;;;11.66;88.05
70133;BME280;57495;49.922;7.966;2023-04-28T02:02:03;99660.44;;;11.48;87.39
70133;BME280;57495;49.922;7.966;2023-04-28T02:04:04;99666.84;;;11.55;89.37
70133;BME280;57495;49.922;7.966;2023-04-28T02:06:05;99668.50;;;11.56;87.23
70133;BME280;57495;49.922;7.966;2023-04-28T02:08:07;99672.69;;;11.58;83.84
70133;BME280;57495;49.922;7.966;2023-04-28T02:10:09;99663.38;;;11.63;87.65
70133;BME280;57495;49.922;7.966;2023-04-28T02:12:10;99656.16;;;11.63;88.48
70133;BME280;57495;49.922;7.966;2023-04-28T02:14:13;99657.47;;;11.59;87.14
70133;BME280;57495;49.922;7.966;2023-04-28T02:16:14;99655.78;;;11.58;84.49
70133;BME280;57495;49.922;7.966;2023-04-28T02:18:16;99646.78;;;11.59;83.84
70133;BME280;57495;49.922;7.966;2023-04-28T02:20:17;99645.06;;;11.58;82.81
70133;BME280;57495;49.922;7.966;2023-04-28T02:22:18;99652.13;;;11.59;83.80
70133;BME280;57495;49.922;7.966;2023-04-28T02:24:20;99653.47;;;11.63;86.55
70133;BME280;57495;49.922;7.966;2023-04-28T02:26:21;99658.84;;;11.63;87.24
70133;BME280;57495;49.922;7.966;2023-04-28T02:28:23;99656.94;;;11.55;88.57
70133;BME280;57495;49.922;7.966;2023-04-28T02:30:26;99642.97;;;11.44;89.34
70133;BME280;57495;49.922;7.966;2023-04-28T02:32:27;99642.97;;;11.44;89.71
70133;BME280;57495;49.922;7.966;2023-04-28T02:34:28;99646.34;;;11.46;88.82
70133;BME280;57495;49.922;7.966;2023-04-28T02:36:30;99634.78;;;11.45;88.02
70133;BME280;57495;49.922;7.966;2023-04-28T02:38:32;99636.47;;;11.46;88.54
70133;BME280;57495;49.922;7.966;2023-04-28T02:40:34;99644.38;;;11.48;87.99
70133;BME280;57495;49.922;7.966;2023-04-28T02:42:35;99640.66;;;11.49;86.46
70133;BME280;57495;49.922;7.966;2023-04-28T02:44:36;99633.16;;;11.52;87.56
70133;BME280;57495;49.922;7.966;2023-04-28T02:46:39;99634.06;;;11.35;83.90
70133;BME280;57495;49.922;7.966;2023-04-28T02:48:40;99627.50;;;11.29;85.31
70133;BME280;57495;49.922;7.966;2023-04-28T02:50:42;99633.22;;;11.34;86.92
70133;BME280;57495;49.922;7.966;2023-04-28T02:52:45;99625.53;;;11.13;89.29
70133;BME280;57495;49.922;7.966;2023-04-28T02:54:46;99613.19;;;11.12;87.94
70133;BME280;57495;49.922;7.966;2023-04-28T02:56:48;99616.28;;;11.26;87.96
70133;BME280;57495;49.922;7.966;2023-04-28T02:58:49;99609.06;;;11.26;88.11
70133;BME280;57495;49.922;7.966;2023-04-28T03:00:51;99606.56;;;11.25;88.57
70133;BME280;57495;49.922;7.966;2023-04-28T03:02:53;99617.09;;;11.26;88.07
70133;BME280;57495;49.922;7.966;2023-04-28T03:04:55;99610.78;;;11.27;88.96
70133;BME280;57495;49.922;7.966;2023-04-28T03:06:56;99604.09;;;11.31;89.10
70133;BME280;57495;49.922;7.966;2023-04-28T03:08:58;99609.75;;;11.28;87.17
70133;BME280;57495;49.922;7.966;2023-04-28T03:10:59;99607.06;;;11.28;86.49
70133;BME280;57495;49.922;7.966;2023-04-28T03:13:00;99599.13;;;11.36;85.42
70133;BME280;57495;49.922;7.966;2023-04-28T03:15:02;99603.16;;;11.40;84.76
70133;BME280;57495;49.922;7.966;2023-04-28T03:17:04;99598.06;;;11.29;84.32
70133;BME280;57495;49.922;7.966;2023-04-28T03:19:06;99606.13;;;11.37;84.32
70133;BME280;57495;49.922;7.966;2023-04-28T03:21:08;99605.81;;;11.40;88.83
70133;BME280;57495;49.922;7.966;2023-04-28T03:23:09;99600.13;;;11.44;92.67
70133;BME280;57495;49.922;7.966;2023-04-28T03:25:11;99600.09;;;11.35;94.40
70133;BME280;57495;49.922;7.966;2023-04-28T03:27:12;99598.69;;;11.23;94.95
70133;BME280;57495;49.922;7.966;2023-04-28T03:29:13;99587.97;;;11.23;96.14
70133;BME280;57495;49.922;7.966;2023-04-28T03:31:15;99585.97;;;11.25;97.42
70133;BME280;57495;49.922;7.966;2023-04-28T03:33:16;99576.75;;;11.19;98.90
70133;BME280;57495;49.922;7.966;2023-04-28T03:35:19;99565.28;;;11.27;99.31
70133;BME280;57495;49.922;7.966;2023-04-28T03:37:20;99567.31;;;11.33;99.27
70133;BME280;57495;49.922;7.966;2023-04-28T03:39:22;99554.38;;;11.29;100.00
70133;BME280;57495;49.922;7.966;2023-04-28T03:41:23;99565.09;;;11.29;99.16
70133;BME280;57495;49.922;7.966;2023-04-28T03:43:25;99564.78;;;11.32;99.55
70133;BME280;57495;49.922;7.966;2023-04-28T03:45:26;99555.69;;;11.25;100.00
70133;BME280;57495;49.922;7.966;2023-04-28T03:47:28;99552.19;;;11.24;100.00
70133;BME280;57495;49.922;7.966;2023-04-28T03:49:29;99559.19;;;11.25;100.00
70133;BME280;57495;49.922;7.966;2023-04-28T03:51:32;99547.66;;;11.25;100.00
70133;BME280;57495;49.922;7.966;2023-04-28T03:53:33;99554.66;;;11.17;100.00
70133;BME280;57495;49.922;7.966;2023-04-28T03:55:35;99555.75;;;11.07;100.00
70133;BME280;57495;49.922;7.966;2023-04-28T03:57:36;99539.91;;;10.87;100.00
70133;BME280;57495;49.922;7.966;2023-04-28T03:59:38;99542.38;;;11.07;100.00
70133;BME280;57495;49.922;7.966;2023-04-28T04:01:39;99546.75;;;11.08;100.00
70133;BME280;57495;49.922;7.966;2023-04-28T04:03:40;99538.56;;;11.09;99.74
70133;BME280;57495;49.922;7.966;2023-04-28T04:05:42;99535.56;;;11.12;99.12
70133;BME280;57495;49.922;7.966;2023-04-28T04:07:44;99537.75;;;11.17;99.09
70133;BME280;57495;49.922;7.966;2023-04-28T04:09:45;99537.75;;;11.17;98.77
70133;BME280;57495;49.922;7.966;2023-04-28T04:11:46;99536.06;;;11.16;100.00
70133;BME280;57495;49.922;7.966;2023-04-28T04:13:48;99531.09;;;11.21;100.00
70133;BME280;57495;49.922;7.966;2023-04-28T04:15:49;99538.13;;;11.22;100.00
70133;BME280;57495;49.922;7.966;2023-04-28T04:17:52;99527.44;;;11.22;100.00
70133;BME280;57495;49.922;7.966;2023-04-28T04:19:53;99527.72;;;11.19;99.89
70133;BME280;57495;49.922;7.966;2023-04-28T04:21:55;99533.59;;;11.22;99.86
70133;BME280;57495;49.922;7.966;2023-04-28T04:23:58;99533.59;;;11.22;100.00
70133;BME280;57495;49.922;7.966;2023-04-28T04:25:59;99525.38;;;11.16;100.00
70133;BME280;57495;49.922;7.966;2023-04-28T04:28:01;99528.91;;;11.16;100.00
70133;BME280;57495;49.922;7.966;2023-04-28T04:30:03;99526.06;;;11.18;100.00
70133;BME280;57495;49.922;7.966;2023-04-28T04:32:05;99528.91;;;11.16;100.00
70133;BME280;57495;49.922;7.966;2023-04-28T04:34:06;99527.88;;;11.17;100.00
70133;BME280;57495;49.922;7.966;2023-04-28T04:36:08;99543.28;;;11.15;100.00
70133;BME280;57495;49.922;7.966;2023-04-28T04:38:09;99536.44;;;11.21;100.00
70133;BME280;57495;49.922;7.966;2023-04-28T04:40:12;99532.41;;;11.17;100.00
70133;BME280;57495;49.922;7.966;2023-04-28T04:42:13;99535.75;;;11.19;100.00
70133;BME280;57495;49.922;7.966;2023-04-28T04:44:15;99551.13;;;11.17;100.00
70133;BME280;57495;49.922;7.966;2023-04-28T04:46:16;99545.25;;;11.13;100.00
70133;BME280;57495;49.922;7.966;2023-04-28T04:48:18;99551.13;;;11.17;100.00
70133;BME280;57495;49.922;7.966;2023-04-28T04:50:19;99556.50;;;11.17;100.00
70133;BME280;57495;49.922;7.966;2023-04-28T04:52:21;99549.81;;;11.21;100.00
70133;BME280;57495;49.922;7.966;2023-04-28T04:54:22;99554.47;;;11.11;100.00
70133;BME280;57495;49.922;7.966;2023-04-28T04:56:25;99560.88;;;11.18;100.00
70133;BME280;57495;49.922;7.966;2023-04-28T04:58:27;99553.44;;;11.12;100.00
70133;BME280;57495;49.922;7.966;2023-04-28T05:00:28;99542.75;;;11.12;100.00
70133;BME280;57495;49.922;7.966;2023-04-28T05:02:29;99557.81;;;11.13;100.00
70133;BME280;57495;49.922;7.966;2023-04-28T05:04:31;99553.81;;;11.17;100.00
70133;BME280;57495;49.922;7.966;2023-04-28T05:06:32;99544.47;;;11.21;100.00
70133;BME280;57495;49.922;7.966;2023-04-28T05:08:34;99544.47;;;11.21;100.00
70133;BME280;57495;49.922;7.966;2023-04-28T05:10:35;99552.03;;;11.26;100.00
70133;BME280;57495;49.922;7.966;2023-04-28T05:12:38;99546.16;;;11.22;100.00
70133;BME280;57495;49.922;7.966;2023-04-28T05:14:39;99549.66;;;11.22;100.00
70133;BME280;57495;49.922;7.966;2023-04-28T05:16:41;99550.50;;;11.23;100.00
70133;BME280;57495;49.922;7.966;2023-04-28T05:18:43;99552.34;;;11.22;100.00
70133;BME280;57495;49.922;7.966;2023-04-28T05:20:44;99553.44;;;11.12;100.00
70133;BME280;57495;49.922;7.966;2023-04-28T05:22:46;99549.63;;;11.14;100.00
70133;BME280;57495;49.922;7.966;2023-04-28T05:24:47;99557.03;;;11.20;100.00
70133;BME280;57495;49.922;7.966;2023-04-28T05:26:48;99552.66;;;11.19;100.00
70133;BME280;57495;49.922;7.966;2023-04-28T05:28:51;99554.34;;;11.20;100.00
70133;BME280;57495;49.922;7.966;2023-04-28T05:30:53;99560.88;;;11.18;100.00
70133;BME280;57495;49.922;7.966;2023-04-28T05:32:54;99562.16;;;11.14;100.00
70133;BME280;57495;49.922;7.966;2023-04-28T05:34:56;99562.03;;;10.97;100.00
70133;BME280;57495;49.922;7.966;2023-04-28T05:36:57;99557.44;;;11.08;100.00
70133;BME280;57495;49.922;7.966;2023-04-28T05:39:02;99547.72;;;11.07;100.00
70133;BME280;57495;49.922;7.966;2023-04-28T05:41:06;99543.38;;;11.06;100.00
70133;BME280;57495;49.922;7.966;2023-04-28T05:43:07;99538.88;;;11.06;100.00
70133;BME280;57495;49.922;7.966;2023-04-28T05:45:10;99553.66;;;10.92;100.00
70133;BME280;57495;49.922;7.966;2023-04-28T05:47:12;99554.81;;;10.90;100.00
70133;BME280;57495;49.922;7.966;2023-04-28T05:49:13;99551.53;;;10.96;100.00
70133;BME280;57495;49.922;7.966;2023-04-28T05:51:15;99544.31;;;10.96;100.00
70133;BME280;57495;49.922;7.966;2023-04-28T05:53:16;99543.50;;;10.96;100.00
70133;BME280;57495;49.922;7.966;2023-04-28T05:55:17;99539.69;;;10.80;100.00
70133;BME280;57495;49.922;7.966;2023-04-28T05:57:19;99544.97;;;10.90;100.00
70133;BME280;57495;49.922;7.966;2023-04-28T05:59:20;99553.53;;;10.94;100.00
70133;BME280;57495;49.922;7.966;2023-04-28T06:01:23;99552.06;;;10.99;100.00
70133;BME280;57495;49.922;7.966;2023-04-28T06:03:25;99550.50;;;10.97;100.00
70133;BME280;57495;49.922;7.966;2023-04-28T06:05:26;99553.56;;;11.02;100.00
70133;BME280;57495;49.922;7.966;2023-04-28T06:07:28;99548.44;;;11.09;100.00
70133;BME280;57495;49.922;7.966;2023-04-28T06:09:29;99553.13;;;11.15;100.00
70133;BME280;57495;49.922;7.966;2023-04-28T06:11:31;99558.50;;;11.15;100.00
70133;BME280;57495;49.922;7.966;2023-04-28T06:13:32;99559.66;;;11.12;100.00
70133;BME280;57495;49.922;7.966;2023-04-28T06:15:34;99562.00;;;11.15;100.00
70133;BME280;57495;49.922;7.966;2023-04-28T06:17:37;99569.19;;;11.15;100.00
70133;BME280;57495;49.922;7.966;2023-04-28T06:19:39;99564.69;;;11.15;100.00
70133;BME280;57495;49.922;7.966;2023-04-28T06:21:40;99566.81;;;11.12;100.00
70133;BME280;57495;49.922;7.966;2023-04-28T06:23:41;99564.63;;;11.07;100.00
70133;BME280;57495;49.922;7.966;2023-04-28T06:25:43;99563.47;;;11.10;100.00
70133;BME280;57495;49.922;7.966;2023-04-28T06:27:44;99557.66;;;11.14;100.00
70133;BME280;57495;49.922;7.966;2023-04-28T06:29:46;99557.16;;;11.19;100.00
70133;BME280;57495;49.922;7.966;2023-04-28T06:31:47;99552.19;;;11.24;100.00
70133;BME280;57495;49.922;7.966;2023-04-28T06:33:50;99557.53;;;11.24;100.00
70133;BME280;57495;49.922;7.966;2023-04-28T06:35:51;99549.44;;;11.16;100.00
70133;BME280;57495;49.922;7.966;2023-04-28T06:37:53;99543.75;;;11.11;100.00
70133;BME280;57495;49.922;7.966;2023-04-28T06:39:54;99537.72;;;11.09;100.00
70133;BME280;57495;49.922;7.966;2023-04-28T06:41:56;99538.41;;;11.11;100.00
70133;BME280;57495;49.922;7.966;2023-04-28T06:43:57;99549.78;;;11.13;100.00
70133;BME280;57495;49.922;7.966;2023-04-28T06:45:59;99552.84;;;11.18;100.00
70133;BME280;57495;49.922;7.966;2023-04-28T06:48:01;99554.13;;;11.14;100.00
70133;BME280;57495;49.922;7.966;2023-04-28T06:50:04;99532.25;;;11.18;100.00
70133;BME280;57495;49.922;7.966;2023-04-28T06:52:05;99520.38;;;11.21;100.00
70133;BME280;57495;49.922;7.966;2023-04-28T06:54:08;99521.13;;;11.31;100.00
70133;BME280;57495;49.922;7.966;2023-04-28T06:56:09;99520.47;;;11.37;100.00
70133;BME280;57495;49.922;7.966;2023-04-28T06:58:10;99514.03;;;11.22;100.00
70133;BME280;57495;49.922;7.966;2023-04-28T07:00:13;99514.81;;;11.40;100.00
70133;BME280;57495;49.922;7.966;2023-04-28T07:02:14;99521.22;;;11.56;100.00
70133;BME280;57495;49.922;7.966;2023-04-28T07:04:16;99532.72;;;11.48;100.00
70133;BME280;57495;49.922;7.966;2023-04-28T07:06:19;99533.63;;;11.65;100.00
70133;BME280;57495;49.922;7.966;2023-04-28T07:08:21;99522.97;;;11.73;100.00
70133;BME280;57495;49.922;7.966;2023-04-28T07:10:22;99526.84;;;11.79;100.00
70133;BME280;57495;49.922;7.966;2023-04-28T07:12:23;99535.03;;;11.86;100.00
70133;BME280;57495;49.922;7.966;2023-04-28T07:14:25;99532.34;;;11.77;100.00
70133;BME280;57495;49.922;7.966;2023-04-28T07:16:26;99532.00;;;11.72;100.00
70133;BME280;57495;49.922;7.966;2023-04-28T07:18:28;99537.03;;;11.84;100.00
70133;BME280;57495;49.922;7.966;2023-04-28T07:20:29;99548.13;;;11.89;100.00
70133;BME280;57495;49.922;7.966;2023-04-28T07:22:32;99547.81;;;11.92;100.00
70133;BME280;57495;49.922;7.966;2023-04-28T07:24:33;99541.88;;;11.80;100.00
70133;BME280;57495;49.922;7.966;2023-04-28T07:26:35;99535.03;;;11.86;100.00
70133;BME280;57495;49.922;7.966;2023-04-28T07:28:36;99520.28;;;11.73;100.00
70133;BME280;57495;49.922;7.966;2023-04-28T07:30:38;99518.59;;;11.30;100.00
70133;BME280;57495;49.922;7.966;2023-04-28T07:32:39;99525.16;;;11.44;100.00
70133;BME280;57495;49.922;7.966;2023-04-28T07:34:41;99527.09;;;11.68;100.00
70133;BME280;57495;49.922;7.966;2023-04-28T07:36:42;99525.50;;;11.83;100.00
70133;BME280;57495;49.922;7.966;2023-04-28T07:38:45;99531.84;;;11.82;100.00
70133;BME280;57495;49.922;7.966;2023-04-28T07:40:46;99525.50;;;11.83;100.00
70133;BME280;57495;49.922;7.966;2023-04-28T07:42:48;99521.47;;;11.79;100.00
70133;BME280;57495;49.922;7.966;2023-04-28T07:44:50;99525.38;;;11.93;100.00
70133;BME280;57495;49.922;7.966;2023-04-28T07:46:52;99533.78;;;12.06;100.00
70133;BME280;57495;49.922;7.966;2023-04-28T07:48:54;99535.97;;;12.19;100.00
70133;BME280;57495;49.922;7.966;2023-04-28T07:50:55;99549.53;;;12.17;100.00
70133;BME280;57495;49.922;7.966;2023-04-28T07:52:57;99554.94;;;12.34;100.00
70133;BME280;57495;49.922;7.966;2023-04-28T07:55:00;99554.59;;;12.37;100.00
70133;BME280;57495;49.922;7.966;2023-04-28T07:57:02;99548.06;;;12.31;100.00
70133;BME280;57495;49.922;7.966;2023-04-28T07:59:05;99548.91;;;12.24;100.00
70133;BME280;57495;49.922;7.966;2023-04-28T08:01:06;99556.94;;;12.24;100.00
70133;BME280;57495;49.922;7.966;2023-04-28T08:03:08;99558.75;;;12.23;100.00
70133;BME280;57495;49.922;7.966;2023-04-28T08:05:09;99553.59;;;12.30;100.00
70133;BME280;57495;49.922;7.966;2023-04-28T08:07:11;99541.53;;;12.26;100.00
70133;BME280;57495;49.922;7.966;2023-04-28T08:09:12;99547.41;;;12.29;100.00
70133;BME280;57495;49.922;7.966;2023-04-28T08:11:15;99552.41;;;12.32;100.00
70133;BME280;57495;49.922;7.966;2023-04-28T08:13:17;99559.97;;;12.37;100.00
70133;BME280;57495;49.922;7.966;2023-04-28T08:15:18;99552.44;;;12.49;100.00
70133;BME280;57495;49.922;7.966;2023-04-28T08:17:19;99550.09;;;12.54;100.00
70133;BME280;57495;49.922;7.966;2023-04-28T08:19:21;99540.69;;;12.58;100.00
70133;BME280;57495;49.922;7.966;2023-04-28T08:21:22;99545.22;;;12.57;100.00
70133;BME280;57495;49.922;7.966;2023-04-28T08:23:24;99549.25;;;12.53;100.00
70133;BME280;57495;49.922;7.966;2023-04-28T08:25:27;99544.41;;;12.57;100.00
70133;BME280;57495;49.922;7.966;2023-04-28T08:27:30;99550.59;;;12.57;100.00
70133;BME280;57495;49.922;7.966;2023-04-28T08:29:33;99546.22;;;12.56;100.00
70133;BME280;57495;49.922;7.966;2023-04-28T08:31:35;99557.47;;;12.68;100.00
70133;BME280;57495;49.922;7.966;2023-04-28T08:33:36;99558.97;;;12.63;100.00
70133;BME280;57495;49.922;7.966;2023-04-28T08:35:38;99559.47;;;12.50;100.00
70133;BME280;57495;49.922;7.966;2023-04-28T08:37:39;99564.00;;;12.57;100.00
70133;BME280;57495;49.922;7.966;2023-04-28T08:39:41;99566.34;;;12.69;100.00
70133;BME280;57495;49.922;7.966;2023-04-28T08:41:42;99567.69;;;12.65;100.00
70133;BME280;57495;49.922;7.966;2023-04-28T08:43:45;99565.69;;;12.67;100.00
70133;BME280;57495;49.922;7.966;2023-04-28T08:45:47;99565.00;;;12.73;100.00
70133;BME280;57495;49.922;7.966;2023-04-28T08:47:50;99568.34;;;12.75;100.00
70133;BME280;57495;49.922;7.966;2023-04-28T08:49:52;99563.00;;;12.75;100.00
70133;BME280;57495;49.922;7.966;2023-04-28T08:51:58;99570.38;;;12.73;100.00
70133;BME280;57495;49.922;7.966;2023-04-28T08:54:01;99569.22;;;12.75;100.00
70133;BME280;57495;49.922;7.966;2023-04-28T08:56:04;99571.72;;;12.85;100.00
70133;BME280;57495;49.922;7.966;2023-04-28T08:58:07;99570.03;;;12.92;100.00
70133;BME280;57495;49.922;7.966;2023-04-28T09:00:11;99561.28;;;12.99;100.00
70133;BME280;57495;49.922;7.966;2023-04-28T09:02:12;99570.69;;;13.03;100.00
70133;BME280;57495;49.922;7.966;2023-04-28T09:04:15;99560.81;;;13.03;100.00
70133;BME280;57495;49.922;7.966;2023-04-28T09:06:16;99561.63;;;13.04;100.00
70133;BME280;57495;49.922;7.966;2023-04-28T09:08:18;99570.66;;;13.19;100.00
70133;BME280;57495;49.922;7.966;2023-04-28T09:10:21;99565.13;;;13.29;100.00
70133;BME280;57495;49.922;7.966;2023-04-28T09:12:35;99570.31;;;13.39;100.00
70133;BME280;57495;49.922;7.966;2023-04-28T09:14:37;99571.47;;;13.36;100.00
70133;BME280;57495;49.922;7.966;2023-04-28T09:16:40;99567.97;;;13.44;100.00
70133;BME280;57495;49.922;7.966;2023-04-28T09:18:54;99576.69;;;13.29;100.00
70133;BME280;57495;49.922;7.966;2023-04-28T09:21:02;99568.81;;;13.36;100.00
70133;BME280;57495;49.922;7.966;2023-04-28T09:23:14;99566.09;;;13.44;100.00
70133;BME280;57495;49.922;7.966;2023-04-28T09:25:17;99569.94;;;13.50;100.00
70133;BME280;57495;49.922;7.966;2023-04-28T09:27:25;99574.66;;;13.48;100.00
70133;BME280;57495;49.922;7.966;2023-04-28T09:29:27;99566.94;;;13.53;100.00
70133;BME280;57495;49.922;7.966;2023-04-28T09:31:29;99561.03;;;13.58;100.00
70133;BME280;57495;49.922;7.966;2023-04-28T09:33:31;99552.75;;;13.67;100.00
70133;BME280;57495;49.922;7.966;2023-04-28T09:35:40;99555.44;;;13.67;100.00
70133;BME280;57495;49.922;7.966;2023-04-28T09:37:41;99561.00;;;13.66;100.00
70133;BME280;57495;49.922;7.966;2023-04-28T09:39:43;99566.53;;;13.64;100.00
70133;BME280;57495;49.922;7.966;2023-04-28T09:41:45;99568.88;;;13.67;100.00
70133;BME280;57495;49.922;7.966;2023-04-28T09:43:46;99567.88;;;13.68;100.00
70133;BME280;57495;49.922;7.966;2023-04-28T09:45:48;99571.53;;;13.76;100.00
70133;BME280;57495;49.922;7.966;2023-04-28T09:47:49;99565.34;;;13.75;100.00
70133;BME280;57495;49.922;7.966;2023-04-28T09:49:57;99560.13;;;13.73;100.00
70133;BME280;57495;49.922;7.966;2023-04-28T09:52:11;99557.06;;;13.77;100.00
70133;BME280;57495;49.922;7.966;2023-04-28T09:54:12;99558.03;;;13.84;100.00
70133;BME280;57495;49.922;7.966;2023-04-28T09:56:14;99550.53;;;13.79;100.00
70133;BME280;57495;49.922;7.966;2023-04-28T09:58:19;99558.84;;;13.92;100.00
70133;BME280;57495;49.922;7.966;2023-04-28T10:00:22;99561.19;;;13.96;100.00
70133;BME280;57495;49.922;7.966;2023-04-28T10:02:24;99548.91;;;14.01;100.00
70133;BME280;57495;49.922;7.966;2023-04-28T10:04:26;99541.81;;;14.08;100.00
70133;BME280;57495;49.922;7.966;2023-04-28T10:06:32;99547.78;;;14.19;100.00
70133;BME280;57495;49.922;7.966;2023-04-28T10:08:34;99542.28;;;14.35;100.00
70133;BME280;57495;49.922;7.966;2023-04-28T10:10:36;99555.66;;;14.43;100.00
70133;BME280;57495;49.922;7.966;2023-04-28T10:12:38;99547.97;;;14.40;100.00
70133;BME280;57495;49.922;7.966;2023-04-28T10:14:40;99552.50;;;14.17;100.00
70133;BME280;57495;49.922;7.966;2023-04-28T10:16:43;99562.19;;;14.26;100.00
70133;BME280;57495;49.922;7.966;2023-04-28T10:18:45;99561.88;;;14.21;100.00
70133;BME280;57495;49.922;7.966;2023-04-28T10:20:48;99568.97;;;14.14;100.00
70133;BME280;57495;49.922;7.966;2023-04-28T10:22:59;99567.97;;;14.15;100.00
70133;BME280;57495;49.922;7.966;2023-04-28T10:25:16;99568.38;;;14.03;100.00
70133;BME280;57495;49.922;7.966;2023-04-28T10:27:28;99567.06;;;13.99;100.00
70133;BME280;57495;49.922;7.966;2023-04-28T10:29:31;99563.31;;;14.08;100.00
70133;BME280;57495;49.922;7.966;2023-04-28T10:31:33;99561.56;;;14.16;100.00
70133;BME280;57495;49.922;7.966;2023-04-28T10:33:36;99556.63;;;14.27;100.00
70133;BME280;57495;49.922;7.966;2023-04-28T10:35:42;99564.13;;;14.40;100.00
70133;BME280;57495;49.922;7.966;2023-04-28T10:38:04;99553.84;;;14.44;100.00
70133;BME280;57495;49.922;7.966;2023-04-28T10:40:30;99556.09;;;14.32;100.00